Time;durP1;ratioP1;P1;durP2;ratioP2;P2;SDS_P1;SDS_P2;PMS_P1;PMS_P2;Temp;Humidity;BMP_temperature;BMP_pressure;BME280_temperature;BME280_humidity;BME280_pressure;Samples;Min_cycle;Max_cycle;Signal;HPM_P1;HPM_P2
2022/11/01 07:53:46;;;;;;;1.05;0.40;;;15.30;99.90;;;;;;5309726;23;20048;-79
2022/11/01 07:56:13;;;;;;;1.27;0.70;;;15.40;99.90;;;;;;4901928;29;20049;-78
2022/11/01 07:58:42;;;;;;;0.63;0.50;;;15.40;99.90;;;;;;4895039;29;20061;-79
2022/11/01 08:01:09;;;;;;;2.40;0.77;;;15.50;99.90;;;;;;4899763;29;20051;-77
2022/11/01 08:03:36;;;;;;;1.08;0.43;;;15.50;99.90;;;;;;4900735;29;20056;-80
2022/11/01 08:06:03;;;;;;;1.88;0.40;;;15.60;99.90;;;;;;4902077;29;20049;-81
2022/11/01 08:08:30;;;;;;;1.80;0.80;;;15.60;99.90;;;;;;4902273;29;20049;-80
2022/11/01 08:10:59;;;;;;;1.50;0.60;;;15.70;99.90;;;;;;4901417;29;20049;-82
2022/11/01 08:13:26;;;;;;;0.68;0.30;;;15.70;99.90;;;;;;4901198;29;20079;-81
2022/11/01 08:15:53;;;;;;;2.05;0.50;;;15.80;99.90;;;;;;4900838;29;20053;-81
2022/11/01 08:18:23;;;;;;;1.45;0.57;;;15.80;99.90;;;;;;4901779;29;20049;-80
2022/11/01 08:20:50;;;;;;;3.40;0.60;;;15.90;99.90;;;;;;4900458;29;20088;-81
2022/11/01 08:23:17;;;;;;;0.80;0.50;;;15.80;99.90;;;;;;4900341;29;20064;-81
2022/11/01 08:25:44;;;;;;;2.05;0.77;;;15.90;99.90;;;;;;4899908;29;20108;-81
2022/11/01 08:28:17;;;;;;;1.15;0.40;;;15.90;99.90;;;;;;4900011;29;20059;-80
2022/11/01 08:30:46;;;;;;;0.82;0.50;;;15.90;99.90;;;;;;4896997;29;20135;-81
2022/11/01 08:33:13;;;;;;;1.63;0.50;;;15.90;99.90;;;;;;4899872;29;20056;-81
2022/11/01 08:35:39;;;;;;;1.60;0.60;;;16.00;99.90;;;;;;4900225;29;20052;-81
2022/11/01 08:38:11;;;;;;;1.38;0.57;;;16.00;99.90;;;;;;4897402;29;20052;-81
2022/11/01 08:40:39;;;;;;;1.77;0.93;;;16.10;99.90;;;;;;4899761;29;20056;-80
2022/11/01 08:43:05;;;;;;;1.83;0.75;;;16.10;99.90;;;;;;4902957;29;20147;-79
2022/11/01 08:45:32;;;;;;;1.08;0.70;;;16.20;99.90;;;;;;4903370;29;20053;-79
2022/11/01 08:48:02;;;;;;;1.75;0.63;;;16.20;99.90;;;;;;4908978;29;20052;-80
2022/11/01 08:50:29;;;;;;;1.60;0.50;;;16.30;99.90;;;;;;4900187;29;20521;-81
2022/11/01 08:52:56;;;;;;;4.63;0.60;;;16.40;99.90;;;;;;4899059;29;20055;-80
2022/11/01 08:55:23;;;;;;;5.63;1.17;;;16.50;99.90;;;;;;4900282;29;20140;-80
2022/11/01 08:57:49;;;;;;;1.95;0.65;;;16.60;99.90;;;;;;4903046;29;20090;-81
2022/11/01 09:00:17;;;;;;;1.85;0.50;;;16.60;99.90;;;;;;4903295;29;20049;-80
2022/11/01 09:02:43;;;;;;;2.17;0.50;;;16.70;99.90;;;;;;4903360;29;20062;-81
2022/11/01 09:05:10;;;;;;;2.10;0.50;;;16.80;99.90;;;;;;4903981;29;20127;-80
2022/11/01 09:07:38;;;;;;;1.17;0.70;;;16.80;99.90;;;;;;4903830;29;20066;-80
2022/11/01 09:10:05;;;;;;;2.80;0.98;;;16.90;99.90;;;;;;4891730;29;20148;-81
2022/11/01 09:12:32;;;;;;;2.80;0.80;;;16.90;99.90;;;;;;4898077;29;20472;-80
2022/11/01 09:14:59;;;;;;;2.22;0.80;;;16.90;99.90;;;;;;4900851;29;20127;-81
2022/11/01 09:17:26;;;;;;;2.67;0.85;;;17.00;99.90;;;;;;4901082;29;20059;-81
2022/11/01 09:19:52;;;;;;;3.53;0.90;;;17.00;99.90;;;;;;4902466;29;20146;-80
2022/11/01 09:22:19;;;;;;;3.25;0.75;;;17.00;99.90;;;;;;4901783;29;20048;-80
2022/11/01 09:24:46;;;;;;;3.53;1.17;;;17.00;99.90;;;;;;4896213;29;20052;-81
2022/11/01 09:27:13;;;;;;;1.38;0.80;;;17.10;99.90;;;;;;4898086;29;20049;-81
2022/11/01 09:29:39;;;;;;;11.60;6.78;;;17.10;99.90;;;;;;4899920;29;20052;-81
2022/11/01 09:32:06;;;;;;;2.95;1.48;;;17.10;99.90;;;;;;4900491;29;20044;-80
2022/11/01 09:34:33;;;;;;;3.05;1.40;;;17.00;99.90;;;;;;4894040;29;20041;-82
2022/11/01 09:37:00;;;;;;;7.22;1.67;;;17.10;99.90;;;;;;4899094;29;20052;-81
2022/11/01 09:39:27;;;;;;;4.90;1.15;;;17.10;99.90;;;;;;4899755;29;20048;-79
2022/11/01 09:42:19;;;;;;;1.80;0.98;;;17.10;99.90;;;;;;4902354;29;20053;-81
2022/11/01 09:44:49;;;;;;;2.83;0.85;;;17.10;99.90;;;;;;4901238;29;20140;-81
2022/11/01 09:47:20;;;;;;;1.63;0.82;;;17.10;99.90;;;;;;4902383;29;20051;-81
2022/11/01 09:49:57;;;;;;;2.63;0.90;;;17.20;99.90;;;;;;4902509;29;20091;-81
2022/11/01 09:52:24;;;;;;;3.45;0.90;;;17.10;99.90;;;;;;4901208;29;20140;-80
2022/11/01 09:54:52;;;;;;;1.25;0.73;;;17.20;99.90;;;;;;4901418;29;20051;-80
2022/11/01 09:57:25;;;;;;;1.70;1.20;;;17.20;99.90;;;;;;4902567;29;20087;-81
2022/11/01 09:59:58;;;;;;;3.40;1.45;;;17.20;99.90;;;;;;4902857;29;20052;-81
2022/11/01 10:02:35;;;;;;;3.83;1.20;;;17.20;99.90;;;;;;4901819;29;20056;-80
2022/11/01 10:05:36;;;;;;;3.35;1.10;;;17.20;99.90;;;;;;4901751;29;20052;-79
2022/11/01 10:08:28;;;;;;;5.40;1.88;;;17.20;99.90;;;;;;4898888;29;20044;-81
2022/11/01 10:11:14;;;;;;;3.80;1.38;;;17.20;99.90;;;;;;4900506;29;20418;-81
2022/11/01 10:14:03;;;;;;;8.45;1.85;;;17.20;99.90;;;;;;4898062;29;20649;-82
2022/11/01 10:16:40;;;;;;;3.55;1.38;;;17.20;99.90;;;;;;4899013;29;20049;-82
2022/11/01 10:19:16;;;;;;;3.53;1.25;;;17.20;99.90;;;;;;4897235;29;20124;-81
2022/11/01 10:21:47;;;;;;;3.13;1.67;;;17.20;99.90;;;;;;4900836;29;20155;-81
2022/11/01 10:24:17;;;;;;;7.30;1.88;;;17.20;99.90;;;;;;4899429;29;20100;-82
2022/11/01 10:26:47;;;;;;;2.60;1.20;;;17.20;99.90;;;;;;4901884;29;20064;-81
2022/11/01 10:29:36;;;;;;;6.10;2.42;;;17.20;99.90;;;;;;4888693;29;20052;-81
2022/11/01 10:32:08;;;;;;;7.05;1.73;;;17.10;99.90;;;;;;4898929;29;20056;-81
2022/11/01 10:34:38;;;;;;;4.85;1.55;;;17.20;99.90;;;;;;4898066;29;20068;-81
2022/11/01 10:37:22;;;;;;;7.60;2.13;;;17.20;99.90;;;;;;4896963;29;20059;-81
2022/11/01 10:40:00;;;;;;;6.03;1.80;;;17.20;99.90;;;;;;4901213;29;20060;-81
2022/11/01 10:42:35;;;;;;;3.33;0.98;;;17.20;99.90;;;;;;4899030;29;20076;-80
2022/11/01 10:45:16;;;;;;;6.93;1.55;;;17.20;99.90;;;;;;4901042;29;20060;-79
2022/11/01 10:47:45;;;;;;;2.70;1.17;;;17.30;99.90;;;;;;4900295;29;20055;-81
2022/11/01 10:50:19;;;;;;;5.55;1.60;;;17.30;99.90;;;;;;4896830;29;20079;-81
2022/11/01 10:52:50;;;;;;;2.92;1.50;;;17.40;99.90;;;;;;4899812;29;20415;-81
2022/11/01 10:55:27;;;;;;;4.38;1.15;;;17.60;99.90;;;;;;4900836;29;20066;-79
2022/11/01 10:58:04;;;;;;;4.30;1.33;;;17.60;99.90;;;;;;4896440;29;20045;-80
2022/11/01 11:00:35;;;;;;;12.00;2.17;;;17.70;99.90;;;;;;4897044;29;20081;-82
2022/11/01 11:03:19;;;;;;;5.28;1.48;;;17.80;99.90;;;;;;4897367;29;20051;-78
2022/11/01 11:05:47;;;;;;;7.03;1.77;;;17.90;99.90;;;;;;4897496;29;20052;-82
2022/11/01 11:08:16;;;;;;;4.78;2.28;;;17.90;99.90;;;;;;4897336;29;20062;-82
2022/11/01 11:10:44;;;;;;;3.67;1.60;;;17.90;99.90;;;;;;4897611;29;20049;-80
2022/11/01 11:13:15;;;;;;;4.15;1.67;;;17.90;99.90;;;;;;4942890;23;20048;-81
2022/11/01 11:15:53;;;;;;;1.65;0.80;;;17.90;99.90;;;;;;4882099;29;20049;-82
2022/11/01 11:18:24;;;;;;;6.47;1.80;;;17.90;99.90;;;;;;4879506;29;20052;-82
2022/11/01 11:20:58;;;;;;;5.18;1.70;;;17.90;99.90;;;;;;4894818;29;20071;-82
2022/11/01 11:23:28;;;;;;;4.90;1.30;;;17.90;99.90;;;;;;4877748;29;20511;-82
2022/11/01 11:26:04;;;;;;;5.32;1.25;;;17.90;99.90;;;;;;4876843;29;20049;-82
2022/11/01 11:28:34;;;;;;;3.90;1.30;;;17.90;99.90;;;;;;4879796;29;20152;-82
2022/11/01 11:31:23;;;;;;;6.50;1.33;;;17.90;99.90;;;;;;4878779;29;20517;-80
2022/11/01 11:33:54;;;;;;;4.60;1.05;;;17.90;99.90;;;;;;4882087;29;20140;-81
2022/11/01 11:36:43;;;;;;;4.30;1.35;;;17.90;99.90;;;;;;4877706;29;20056;-82
2022/11/01 11:39:28;;;;;;;2.28;1.27;;;17.90;99.90;;;;;;4880309;29;20077;-78
2022/11/01 11:42:19;;;;;;;4.25;1.50;;;18.00;99.90;;;;;;4895909;29;20053;-82
2022/11/01 11:44:52;;;;;;;7.95;3.75;;;18.00;99.90;;;;;;4893874;29;20140;-81
2022/11/01 11:47:24;;;;;;;6.55;1.58;;;18.00;99.90;;;;;;4880577;29;20049;-82
2022/11/01 11:49:52;;;;;;;6.50;1.33;;;17.90;99.90;;;;;;4880226;29;20056;-81
2022/11/01 11:52:22;;;;;;;3.97;1.63;;;17.90;99.90;;;;;;4880945;29;20075;-78
2022/11/01 11:54:54;;;;;;;4.25;1.38;;;17.90;99.90;;;;;;4880235;29;20045;-80
2022/11/01 11:57:26;;;;;;;3.58;1.55;;;17.80;99.90;;;;;;4880716;29;20045;-81
2022/11/01 12:00:04;;;;;;;5.93;1.88;;;17.80;99.90;;;;;;4878368;29;20059;-80
2022/11/01 12:02:36;;;;;;;5.22;1.70;;;17.80;99.90;;;;;;4876446;29;20060;-82
2022/11/01 12:05:13;;;;;;;3.05;1.10;;;17.90;99.90;;;;;;4882064;29;20059;-82
2022/11/01 12:07:48;;;;;;;1.90;1.08;;;17.90;99.90;;;;;;4880609;29;20056;-82
2022/11/01 12:10:38;;;;;;;3.95;1.33;;;18.00;99.90;;;;;;4881864;29;20574;-82
2022/11/01 12:13:32;;;;;;;2.83;1.43;;;18.00;99.90;;;;;;4879895;29;20045;-80
2022/11/01 12:16:20;;;;;;;1.63;0.98;;;18.00;99.90;;;;;;4881655;29;20294;-80
2022/11/01 12:19:01;;;;;;;4.57;1.38;;;17.90;99.90;;;;;;4883902;29;20132;-81
2022/11/01 12:21:33;;;;;;;6.50;1.52;;;17.90;99.90;;;;;;4883879;29;20060;-81
2022/11/01 12:24:22;;;;;;;2.92;1.25;;;17.90;99.90;;;;;;4884800;29;20053;-81
2022/11/01 12:26:53;;;;;;;5.85;1.40;;;17.80;99.90;;;;;;4885106;29;20057;-81
2022/11/01 12:29:49;;;;;;;5.47;1.23;;;17.80;99.90;;;;;;4880368;29;20056;-81
2022/11/01 12:32:25;;;;;;;4.50;1.65;;;17.70;99.90;;;;;;4898740;29;20053;-81
2022/11/01 12:34:56;;;;;;;3.97;1.27;;;17.70;99.90;;;;;;4884388;29;20059;-82
2022/11/01 12:37:51;;;;;;;3.53;1.20;;;17.60;99.90;;;;;;4884528;29;20053;-80
2022/11/01 12:40:31;;;;;;;4.35;1.33;;;17.70;99.90;;;;;;4896276;29;20144;-80
2022/11/01 12:43:02;;;;;;;;;;;17.70;99.90;;;;;;4884119;29;20136;-81
2022/11/01 12:45:39;;;;;;;3.70;1.40;;;17.70;99.90;;;;;;4880243;29;19930;-79
2022/11/01 12:48:12;;;;;;;3.53;1.15;;;17.80;99.90;;;;;;4878338;29;20136;-82
2022/11/01 12:50:53;;;;;;;3.88;1.40;;;17.90;99.90;;;;;;4884580;29;20132;-82
2022/11/01 12:53:48;;;;;;;3.70;1.00;;;18.00;99.90;;;;;;4877822;29;20487;-82
2022/11/01 12:56:16;;;;;;;4.20;1.48;;;17.90;99.90;;;;;;4881191;29;20052;-81
2022/11/01 12:58:43;;;;;;;5.57;1.42;;;17.90;99.90;;;;;;4881232;29;20594;-82
2022/11/01 13:01:35;;;;;;;7.68;1.58;;;17.90;99.90;;;;;;4883526;29;20079;-81
2022/11/01 13:04:16;;;;;;;6.20;1.30;;;18.00;99.90;;;;;;4880036;29;20080;-81
2022/11/01 13:06:46;;;;;;;5.15;1.52;;;18.00;99.90;;;;;;4880919;29;20468;-82
2022/11/01 13:09:31;;;;;;;5.18;1.58;;;18.10;99.90;;;;;;4884628;29;20057;-81
2022/11/01 13:12:31;;;;;;;6.82;1.95;;;18.10;99.90;;;;;;4881355;29;20056;-81
2022/11/01 13:15:17;;;;;;;3.03;1.00;;;18.00;99.90;;;;;;4881280;29;20082;-81
2022/11/01 13:17:54;;;;;;;5.47;1.33;;;18.00;99.90;;;;;;4892566;29;20115;-81
2022/11/01 13:20:44;;;;;;;7.70;2.08;;;17.90;99.90;;;;;;4897700;29;20053;-80
2022/11/01 13:23:13;;;;;;;;;;;17.80;99.90;;;;;;4880422;29;20132;-82
2022/11/01 13:26:10;;;;;;;4.10;1.40;;;17.70;99.90;;;;;;4897950;29;19931;-79
2022/11/01 13:28:42;;;;;;;6.80;1.67;;;17.60;99.90;;;;;;4882499;29;20067;-82
2022/11/01 13:31:50;;;;;;;7.40;1.50;;;17.60;99.90;;;;;;4884203;29;20056;-81
2022/11/01 13:34:38;;;;;;;5.07;1.00;;;17.60;99.90;;;;;;4881096;29;20158;-82
2022/11/01 13:37:10;;;;;;;4.50;1.08;;;17.60;99.90;;;;;;4880538;29;20057;-82
2022/11/01 13:40:02;;;;;;;6.75;1.67;;;17.60;99.90;;;;;;4884147;29;20056;-80
2022/11/01 13:42:32;;;;;;;6.72;1.30;;;17.60;99.90;;;;;;4880796;29;20059;-81
2022/11/01 13:45:11;;;;;;;5.82;1.38;;;17.60;99.90;;;;;;4883652;29;20111;-82
2022/11/01 13:48:16;;;;;;;7.30;1.50;;;17.60;99.90;;;;;;4883906;29;20052;-80
2022/11/01 13:50:54;;;;;;;7.32;1.38;;;17.50;99.90;;;;;;4853701;29;20517;-78
2022/11/01 13:53:39;;;;;;;8.07;1.40;;;17.40;99.90;;;;;;4883569;29;20049;-81
2022/11/01 13:56:20;;;;;;;7.78;1.40;;;17.40;99.90;;;;;;4879381;29;20053;-82
2022/11/01 13:58:46;;;;;;;5.93;1.48;;;17.40;99.90;;;;;;4882324;29;20632;-82
2022/11/01 14:01:34;;;;;;;5.47;1.27;;;17.40;99.90;;;;;;4885824;29;20061;-80
2022/11/01 14:04:33;;;;;;;6.60;1.13;;;17.40;99.90;;;;;;4880782;29;20471;-81
2022/11/01 14:07:09;;;;;;;5.68;1.25;;;17.40;99.90;;;;;;4876551;29;20456;-81
2022/11/01 14:09:54;;;;;;;3.47;0.93;;;17.50;99.90;;;;;;4883081;29;20049;-81
2022/11/01 14:12:31;;;;;;;5.10;1.20;;;17.40;99.90;;;;;;4881570;29;20531;-82
2022/11/01 14:15:25;;;;;;;5.32;1.20;;;17.50;99.90;;;;;;4882915;29;20061;-81
2022/11/01 14:17:55;;;;;;;3.25;1.05;;;17.50;99.90;;;;;;4876275;29;20460;-80
2022/11/01 14:20:24;;;;;;;6.83;1.33;;;17.50;99.90;;;;;;4879698;29;20105;-81
2022/11/01 14:22:53;;;;;;;5.30;1.17;;;17.50;99.90;;;;;;4883336;29;20049;-81
2022/11/01 14:25:23;;;;;;;6.40;1.15;;;17.40;99.90;;;;;;4882318;29;20067;-82
2022/11/01 14:28:10;;;;;;;6.93;1.00;;;17.30;99.90;;;;;;4882412;29;20418;-81
2022/11/01 14:30:41;;;;;;;5.70;1.30;;;17.40;99.90;;;;;;4879067;29;20053;-79
2022/11/01 14:33:11;;;;;;;;;;;17.30;99.90;;;;;;4883209;29;20117;-81
2022/11/01 14:35:39;;;;;;;7.72;0.98;;;17.30;99.90;;;;;;4883667;29;19924;-80
2022/11/01 14:38:17;;;;;;;5.90;1.00;;;17.30;99.90;;;;;;4880582;29;20060;-82
2022/11/01 14:41:04;;;;;;;7.05;1.40;;;17.40;99.90;;;;;;4877659;29;20058;-81
2022/11/01 14:43:52;;;;;;;6.57;1.25;;;17.40;99.90;;;;;;4876045;29;20129;-81
2022/11/01 14:46:23;;;;;;;7.53;1.08;;;17.40;99.90;;;;;;4879710;29;20053;-79
2022/11/01 14:48:50;;;;;;;7.45;1.40;;;17.40;99.90;;;;;;4882652;29;20080;-80
2022/11/01 14:51:27;;;;;;;7.03;1.10;;;17.40;99.90;;;;;;4882272;29;20617;-82
2022/11/01 14:54:29;;;;;;;4.88;1.23;;;17.40;99.90;;;;;;4897126;29;20056;-80
2022/11/01 14:56:57;;;;;;;6.25;1.08;;;17.40;99.90;;;;;;4875074;29;20077;-81
2022/11/01 14:59:30;;;;;;;3.70;1.38;;;17.40;99.90;;;;;;4883770;29;20140;-82
2022/11/01 15:02:00;;;;;;;3.20;0.93;;;17.40;99.90;;;;;;4881724;29;20057;-79
2022/11/01 15:04:32;;;;;;;4.25;1.10;;;17.30;99.90;;;;;;4881869;29;20092;-81
2022/11/01 15:06:59;;;;;;;6.05;1.27;;;17.30;99.90;;;;;;4876980;29;20057;-82
2022/11/01 15:09:28;;;;;;;5.00;1.05;;;17.30;99.90;;;;;;4879228;29;20049;-82
2022/11/01 15:12:04;;;;;;;5.30;1.17;;;17.20;99.90;;;;;;4881406;29;20072;-80
2022/11/01 15:14:37;;;;;;;5.35;1.27;;;17.10;99.90;;;;;;4882526;29;20297;-81
2022/11/01 15:17:16;;;;;;;7.82;1.60;;;17.10;99.90;;;;;;4882762;29;20538;-79
2022/11/01 15:19:45;;;;;;;8.68;1.63;;;17.10;99.90;;;;;;4880157;29;20103;-81
2022/11/01 15:22:16;;;;;;;10.73;1.80;;;17.10;99.90;;;;;;4881448;29;20060;-78
2022/11/01 15:24:46;;;;;;;8.10;1.40;;;17.10;99.90;;;;;;4882460;29;20061;-81
2022/11/01 15:27:20;;;;;;;11.43;1.77;;;17.10;99.90;;;;;;4879044;29;20128;-82
2022/11/01 15:29:47;;;;;;;9.48;2.05;;;17.00;99.90;;;;;;4881935;29;20537;-80
2022/11/01 15:32:33;;;;;;;7.07;1.20;;;17.00;99.90;;;;;;4883231;29;20053;-80
2022/11/01 15:35:04;;;;;;;4.25;1.10;;;17.00;99.90;;;;;;4881110;29;20137;-81
2022/11/01 15:37:32;;;;;;;3.58;1.33;;;17.00;99.90;;;;;;4880100;29;20053;-81
2022/11/01 15:40:00;;;;;;;7.95;1.85;;;16.90;99.90;;;;;;4895241;29;20423;-82
2022/11/01 15:42:32;;;;;;;5.78;1.40;;;16.90;99.90;;;;;;4886857;29;20144;-81
2022/11/01 15:45:18;;;;;;;8.27;1.80;;;16.90;99.90;;;;;;4879193;29;20642;-80
2022/11/01 15:47:45;;;;;;;6.63;1.52;;;16.90;99.90;;;;;;4893876;29;20054;-81
2022/11/01 15:50:12;;;;;;;6.15;1.17;;;16.90;99.90;;;;;;4877454;29;20049;-78
2022/11/01 15:52:39;;;;;;;3.63;1.10;;;16.90;99.90;;;;;;4884026;29;20526;-80
2022/11/01 15:55:19;;;;;;;5.60;1.67;;;16.90;99.90;;;;;;4884934;29;20053;-82
2022/11/01 15:58:07;;;;;;;7.22;1.50;;;16.90;99.90;;;;;;4884584;29;20418;-82
2022/11/01 16:00:40;;;;;;;8.32;1.80;;;16.90;99.90;;;;;;4883889;29;20106;-80
2022/11/01 16:03:12;;;;;;;9.25;2.10;;;16.80;99.90;;;;;;4899175;29;20135;-79
2022/11/01 16:05:51;;;;;;;6.00;1.73;;;16.80;99.90;;;;;;4885376;29;20093;-81
2022/11/01 16:08:39;;;;;;;6.78;1.48;;;16.70;99.90;;;;;;4884140;29;20059;-82
2022/11/01 16:11:06;;;;;;;3.85;1.15;;;16.50;99.90;;;;;;4884959;29;20057;-81
2022/11/01 16:13:33;;;;;;;7.60;1.38;;;16.40;99.90;;;;;;4882531;29;20055;-81
2022/11/01 16:16:06;;;;;;;7.20;1.25;;;16.30;99.90;;;;;;4866720;29;20049;-80
2022/11/01 16:18:35;;;;;;;7.93;1.27;;;16.20;99.90;;;;;;4878686;29;20049;-79
2022/11/01 16:21:20;;;;;;;6.80;1.50;;;16.00;99.90;;;;;;4885746;29;20075;-81
2022/11/01 16:23:55;;;;;;;5.22;1.27;;;16.00;99.90;;;;;;4884049;29;20412;-80
2022/11/01 16:26:22;;;;;;;8.40;1.83;;;15.90;99.90;;;;;;4887463;29;20045;-80
2022/11/01 16:28:50;;;;;;;7.63;1.80;;;15.80;99.90;;;;;;4884421;29;20049;-80
2022/11/01 16:31:24;;;;;;;8.48;1.90;;;15.80;99.90;;;;;;4884696;29;20063;-78
2022/11/01 16:33:55;;;;;;;8.05;2.03;;;15.70;99.90;;;;;;4879194;29;20057;-80
2022/11/01 16:36:41;;;;;;;6.22;1.70;;;15.60;99.90;;;;;;4880703;29;20045;-82
2022/11/01 16:39:33;;;;;;;9.00;2.40;;;15.50;99.90;;;;;;4885032;29;20152;-81
2022/11/01 16:42:00;;;;;;;8.75;2.05;;;15.40;99.90;;;;;;4884152;29;20471;-81
2022/11/01 16:44:27;;;;;;;9.48;2.30;;;15.30;99.90;;;;;;4885168;29;20143;-81
2022/11/01 16:46:54;;;;;;;7.10;2.10;;;15.20;99.90;;;;;;4885032;29;20048;-81
2022/11/01 16:49:30;;;;;;;10.43;3.78;;;15.20;99.90;;;;;;4885074;29;20056;-80
2022/11/01 16:51:57;;;;;;;11.38;4.03;;;15.10;99.90;;;;;;4875376;29;20069;-80
2022/11/01 16:54:24;;;;;;;17.77;6.82;;;15.10;99.90;;;;;;4882258;29;20041;-80
2022/11/01 16:56:57;;;;;;;10.13;3.33;;;15.00;99.90;;;;;;4886152;29;20049;-81
2022/11/01 16:59:30;;;;;;;18.08;4.90;;;15.00;99.90;;;;;;4877699;29;20100;-80
2022/11/01 17:01:58;;;;;;;12.82;3.75;;;14.90;99.90;;;;;;4894873;29;20069;-79
2022/11/01 17:04:26;;;;;;;7.80;3.83;;;14.80;99.90;;;;;;4883182;29;20061;-81
2022/11/01 17:06:56;;;;;;;9.93;2.13;;;14.70;99.90;;;;;;4884420;29;20056;-79
2022/11/01 17:09:23;;;;;;;17.55;9.23;;;14.70;99.90;;;;;;4881655;29;20052;-79
2022/11/01 17:11:52;;;;;;;9.68;5.18;;;14.60;99.90;;;;;;4882969;29;20510;-82
2022/11/01 17:14:20;;;;;;;11.27;7.90;;;14.60;99.90;;;;;;4884186;29;20045;-80
2022/11/01 17:16:49;;;;;;;14.57;3.92;;;14.60;99.90;;;;;;4882774;29;20542;-79
2022/11/01 17:19:30;;;;;;;7.63;3.70;;;14.50;99.90;;;;;;4883655;29;20471;-81
2022/11/01 17:22:01;;;;;;;13.98;4.13;;;14.50;99.90;;;;;;4886097;29;20084;-79
2022/11/01 17:24:29;;;;;;;6.45;2.45;;;14.40;99.90;;;;;;4882319;29;20079;-81
2022/11/01 17:26:59;;;;;;;17.90;3.80;;;14.40;99.90;;;;;;4881823;29;20287;-81
2022/11/01 17:29:27;;;;;;;14.60;5.35;;;14.30;99.90;;;;;;4882586;29;20055;-80
2022/11/01 17:31:53;;;;;;;11.40;5.68;;;14.30;99.90;;;;;;4878242;29;20061;-80
2022/11/01 17:34:20;;;;;;;6.70;3.50;;;14.30;99.90;;;;;;4865539;29;20088;-78
2022/11/01 17:36:48;;;;;;;12.98;2.65;;;14.30;99.90;;;;;;4881297;29;20152;-81
2022/11/01 17:39:15;;;;;;;7.55;2.80;;;14.10;99.90;;;;;;4867196;29;20054;-82
2022/11/01 17:41:42;;;;;;;8.25;1.60;;;14.20;99.90;;;;;;4881966;29;20057;-81
2022/11/01 17:44:12;;;;;;;12.93;2.20;;;14.00;99.90;;;;;;4875577;29;20049;-79
2022/11/01 17:46:38;;;;;;;6.22;1.90;;;14.10;99.90;;;;;;4883516;29;20061;-81
2022/11/01 17:49:05;;;;;;;11.52;2.20;;;14.00;99.90;;;;;;4886496;29;20079;-81
2022/11/01 17:51:32;;;;;;;11.07;3.95;;;13.90;99.90;;;;;;4883566;29;20434;-82
2022/11/01 17:53:59;;;;;;;7.50;3.70;;;13.80;99.90;;;;;;4881731;29;20056;-80
2022/11/01 17:56:26;;;;;;;10.57;3.83;;;13.80;99.90;;;;;;4887249;29;20088;-81
2022/11/01 17:58:54;;;;;;;9.18;3.45;;;13.70;99.90;;;;;;4884147;29;20064;-80
2022/11/01 18:01:21;;;;;;;16.67;6.70;;;13.70;99.90;;;;;;4882408;29;20451;-81
2022/11/01 18:03:48;;;;;;;17.25;8.50;;;13.70;99.90;;;;;;4882635;29;20681;-81
2022/11/01 18:06:15;;;;;;;17.05;9.13;;;13.60;99.90;;;;;;4883189;29;20056;-81
2022/11/01 18:08:47;;;;;;;14.55;5.78;;;13.50;99.90;;;;;;4883317;29;20132;-80
2022/11/01 18:11:33;;;;;;;22.33;9.05;;;13.50;99.90;;;;;;4881614;29;20061;-80
2022/11/01 18:14:17;;;;;;;24.23;10.27;;;13.50;99.90;;;;;;4880993;29;20140;-81
2022/11/01 18:17:18;;;;;;;21.73;9.10;;;13.40;99.90;;;;;;4883436;29;20088;-81
2022/11/01 18:19:56;;;;;;;17.48;9.55;;;13.40;99.90;;;;;;4877428;29;20057;-81
2022/11/01 18:22:50;;;;;;;14.43;7.35;;;13.40;99.90;;;;;;4881064;29;20603;-81
2022/11/01 18:25:24;;;;;;;14.73;6.00;;;13.40;99.90;;;;;;4881482;29;20052;-80
2022/11/01 18:27:54;;;;;;;11.43;4.10;;;13.40;99.90;;;;;;4881257;29;20132;-80
2022/11/01 18:30:21;;;;;;;6.22;2.60;;;13.40;99.90;;;;;;4882308;29;20049;-80
2022/11/01 18:33:03;;;;;;;11.18;2.47;;;13.40;99.90;;;;;;4881916;29;20092;-81
2022/11/01 18:36:02;;;;;;;12.82;2.72;;;13.40;99.90;;;;;;4880982;29;20052;-80
2022/11/01 18:38:38;;;;;;;10.68;2.85;;;13.30;99.90;;;;;;4843573;29;20049;-81
2022/11/01 18:41:09;;;;;;;17.20;6.68;;;13.30;99.90;;;;;;4882107;29;20049;-81
2022/11/01 18:43:39;;;;;;;7.32;3.00;;;13.30;99.90;;;;;;4881775;29;20114;-81
2022/11/01 18:46:23;;;;;;;9.77;3.80;;;13.20;99.90;;;;;;4882070;29;20059;-81
2022/11/01 18:48:58;;;;;;;13.95;3.72;;;13.10;99.90;;;;;;4882275;29;20056;-81
2022/11/01 18:51:31;;;;;;;10.85;4.22;;;13.10;99.90;;;;;;4866891;29;20057;-80
2022/11/01 18:54:07;;;;;;;10.70;3.40;;;13.10;99.90;;;;;;4866741;29;20052;-80
2022/11/01 18:56:38;;;;;;;10.70;3.45;;;13.20;99.90;;;;;;4896510;29;20400;-81
2022/11/01 18:59:18;;;;;;;10.85;2.88;;;13.20;99.90;;;;;;4894674;29;20120;-81
2022/11/01 19:01:45;;;;;;;12.02;4.07;;;13.10;99.90;;;;;;4882178;29;20053;-81
2022/11/01 19:04:20;;;;;;;18.42;5.30;;;13.00;99.90;;;;;;4881956;29;20049;-81
2022/11/01 19:06:48;;;;;;;10.20;3.20;;;13.10;99.90;;;;;;4880242;29;20511;-80
2022/11/01 19:09:18;;;;;;;7.53;2.20;;;13.00;99.90;;;;;;4880068;29;20072;-81
2022/11/01 19:11:45;;;;;;;7.88;2.97;;;13.00;99.90;;;;;;4880854;29;20057;-80
2022/11/01 19:14:20;;;;;;;9.05;2.70;;;12.90;99.90;;;;;;4871053;29;20091;-81
2022/11/01 19:16:48;;;;;;;8.93;3.22;;;13.00;99.90;;;;;;4877874;29;20455;-80
2022/11/01 19:19:18;;;;;;;14.85;4.20;;;13.00;99.90;;;;;;4878184;29;20076;-77
2022/11/01 19:21:45;;;;;;;;;;;13.00;99.90;;;;;;4877818;29;20499;-81
2022/11/01 19:24:27;;;;;;;11.93;5.20;;;13.00;99.90;;;;;;4882470;29;19928;-81
2022/11/01 19:26:55;;;;;;;15.88;4.93;;;13.00;99.90;;;;;;4879839;29;20064;-80
2022/11/01 19:29:24;;;;;;;13.95;5.25;;;13.00;99.90;;;;;;4875945;29;20113;-80
2022/11/01 19:31:57;;;;;;;12.32;6.05;;;13.10;99.90;;;;;;4876894;29;20061;-80
2022/11/01 19:34:32;;;;;;;15.68;7.22;;;12.90;99.90;;;;;;4874270;29;20132;-80
2022/11/01 19:37:03;;;;;;;15.77;6.18;;;12.90;99.90;;;;;;4877866;29;20107;-82
2022/11/01 19:39:39;;;;;;;17.60;6.70;;;12.90;99.90;;;;;;4877674;29;20079;-80
2022/11/01 19:42:25;;;;;;;11.75;7.13;;;12.90;99.90;;;;;;4877287;29;20136;-80
2022/11/01 19:44:58;;;;;;;14.27;6.20;;;12.90;99.90;;;;;;4891382;29;20128;-80
2022/11/01 19:47:35;;;;;;;11.30;5.88;;;12.80;99.90;;;;;;4889068;29;20566;-81
2022/11/01 19:50:22;;;;;;;12.20;5.13;;;12.70;99.90;;;;;;4877798;29;20137;-81
2022/11/01 19:52:50;;;;;;;11.90;4.90;;;12.80;99.90;;;;;;4875343;29;20124;-81
2022/11/01 19:55:35;;;;;;;11.73;3.85;;;12.70;99.90;;;;;;4879790;29;20049;-81
2022/11/01 19:58:28;;;;;;;12.52;3.85;;;12.70;99.90;;;;;;4878022;29;20546;-83
2022/11/01 20:01:11;;;;;;;8.88;2.88;;;12.70;99.90;;;;;;4878538;29;20136;-79
2022/11/01 20:03:43;;;;;;;9.23;3.67;;;12.70;99.90;;;;;;4880845;29;21009;-81
2022/11/01 20:06:19;;;;;;;9.45;3.47;;;12.70;99.90;;;;;;4885470;29;20521;-79
2022/11/01 20:08:50;;;;;;;12.52;4.45;;;12.70;99.90;;;;;;4878286;29;20057;-78
2022/11/01 20:11:16;;;;;;;8.35;3.58;;;12.70;99.90;;;;;;4880239;29;20064;-81
2022/11/01 20:13:43;;;;;;;10.57;4.20;;;12.70;99.90;;;;;;4879043;29;20113;-81
2022/11/01 20:16:10;;;;;;;8.32;3.70;;;12.70;99.90;;;;;;4880838;29;20053;-81
2022/11/01 20:18:36;;;;;;;11.98;3.85;;;12.60;99.90;;;;;;4877151;29;20045;-81
2022/11/01 20:21:05;;;;;;;11.02;3.00;;;12.70;99.90;;;;;;4882123;29;20051;-82
2022/11/01 20:23:32;;;;;;;11.07;3.85;;;12.70;99.90;;;;;;4881151;29;20052;-81
2022/11/01 20:26:00;;;;;;;10.32;3.55;;;12.70;99.90;;;;;;4881641;29;20045;-81
2022/11/01 20:28:27;;;;;;;5.38;2.25;;;12.70;99.90;;;;;;4881755;29;20057;-80
2022/11/01 20:30:54;;;;;;;5.65;2.30;;;12.60;99.90;;;;;;4881971;29;20575;-81
2022/11/01 20:33:24;;;;;;;8.75;2.10;;;12.70;99.90;;;;;;4881324;29;20467;-80
2022/11/01 20:35:51;;;;;;;7.13;2.05;;;12.60;99.90;;;;;;4881108;29;20059;-81
2022/11/01 20:38:19;;;;;;;10.18;2.22;;;12.70;99.90;;;;;;4881379;29;20049;-82
2022/11/01 20:40:50;;;;;;;4.50;1.30;;;12.60;99.90;;;;;;4884583;29;20053;-80
2022/11/01 20:43:17;;;;;;;9.85;1.60;;;12.60;99.90;;;;;;4884766;29;20065;-81
2022/11/01 20:45:44;;;;;;;11.40;2.67;;;12.60;99.90;;;;;;4883221;29;20053;-81
2022/11/01 20:48:10;;;;;;;10.88;2.45;;;12.70;99.90;;;;;;4885236;29;20064;-81
